Time;durP1;ratioP1;P1;durP2;ratioP2;P2;SDS_P1;SDS_P2;PMS_P1;PMS_P2;Temp;Humidity;BMP_temperature;BMP_pressure;BME280_temperature;BME280_humidity;BME280_pressure;Samples;Min_cycle;Max_cycle;Signal;HPM_P1;HPM_P2
2024/04/23 00:00:37;;;;;;;3.95;2.70;;;7.10;57.70;;;1.90;86.00;95341.50;5326513;26;20001;-53
2024/04/23 00:03:03;;;;;;;4.85;2.75;;;7.10;57.70;;;1.88;85.89;95342.75;5328438;26;20017;-54
2024/04/23 00:05:29;;;;;;;5.30;3.13;;;7.10;57.80;;;1.88;86.36;95334.84;5329025;26;20020;-54
2024/04/23 00:07:55;;;;;;;3.00;2.53;;;7.00;57.80;;;1.79;85.10;95337.78;5325928;26;20005;-53
2024/04/23 00:10:21;;;;;;;4.93;2.90;;;7.00;57.70;;;1.79;85.83;95329.91;5320942;26;20001;-51
2024/04/23 00:12:46;;;;;;;4.60;3.20;;;7.00;57.80;;;1.79;86.61;95326.47;5326787;26;20000;-55
2024/04/23 00:15:12;;;;;;;4.18;3.10;;;6.90;57.80;;;1.78;86.44;95330.09;5329969;26;20008;-50
2024/04/23 00:17:38;;;;;;;4.32;3.17;;;6.90;57.80;;;1.76;86.64;95321.66;5347913;26;20464;-54
2024/04/23 00:20:06;;;;;;;3.25;2.70;;;6.80;57.80;;;1.75;85.99;95312.16;5307854;26;20449;-50
2024/04/23 00:22:32;;;;;;;3.60;2.80;;;6.80;57.90;;;1.68;86.53;95316.66;5305598;26;20082;-52
2024/04/23 00:24:58;;;;;;;4.43;3.10;;;6.80;57.90;;;1.66;87.00;95308.19;5309592;26;20409;-52
2024/04/23 00:27:23;;;;;;;3.70;2.88;;;6.80;57.90;;;1.64;87.37;95310.25;5306485;26;20496;-51
2024/04/23 00:29:49;;;;;;;3.75;2.85;;;6.70;57.90;;;1.66;87.99;95313.44;5308144;26;20379;-51
2024/04/23 00:32:15;;;;;;;6.25;3.10;;;6.70;58.00;;;1.61;88.27;95308.84;5307088;26;20005;-53
2024/04/23 00:34:40;;;;;;;4.40;2.90;;;6.70;58.00;;;1.56;88.39;95311.28;5316409;26;20011;-49
2024/04/23 00:37:06;;;;;;;3.88;2.88;;;6.70;58.10;;;1.51;89.56;95311.16;5328136;26;20012;-50
2024/04/23 00:39:32;;;;;;;5.40;2.90;;;6.60;58.10;;;1.48;89.41;95301.88;5331508;26;20086;-48
2024/04/23 00:41:59;;;;;;;4.63;2.90;;;6.60;58.10;;;1.43;89.94;95306.16;5330609;26;20017;-53
2024/04/23 00:44:24;;;;;;;5.75;3.00;;;6.60;58.20;;;1.36;91.65;95308.84;5316276;26;20460;-52
2024/04/23 00:46:52;;;;;;;4.18;2.80;;;6.50;58.20;;;1.33;90.64;95304.00;5310918;26;20012;-51
2024/04/23 00:49:19;;;;;;;4.30;3.00;;;6.50;58.90;;;1.28;90.95;95304.63;5309756;26;20005;-52
2024/04/23 00:51:52;;;;;;;3.58;3.08;;;6.50;58.40;;;1.22;91.49;95304.69;5311549;26;20025;-51
2024/04/23 00:54:25;;;;;;;4.53;2.85;;;6.40;58.40;;;1.17;92.23;95301.91;5340418;26;20009;-49
2024/04/23 00:56:56;;;;;;;4.70;3.42;;;6.40;58.50;;;1.14;92.33;95297.88;5312630;26;20009;-50
2024/04/23 00:59:24;;;;;;;4.50;3.13;;;6.30;58.50;;;1.14;92.69;95295.25;5344005;26;20016;-52
2024/04/23 01:01:52;;;;;;;4.57;3.08;;;6.30;58.60;;;1.12;93.09;95287.59;5312595;26;19997;-53
2024/04/23 01:04:19;;;;;;;5.93;2.88;;;6.30;58.70;;;1.11;93.59;95288.63;5315247;26;20537;-51
2024/04/23 01:06:49;;;;;;;5.13;3.40;;;6.30;58.70;;;1.05;94.57;95292.09;5329331;26;20077;-50
2024/04/23 01:09:17;;;;;;;6.60;3.38;;;6.20;58.70;;;1.06;95.11;95292.88;5332137;26;20023;-51
2024/04/23 01:11:43;;;;;;;4.97;3.25;;;6.20;58.80;;;1.04;95.16;95287.06;5342340;26;20023;-56
2024/04/23 01:14:09;;;;;;;5.55;3.20;;;6.20;58.90;;;1.03;96.03;95288.84;5349699;26;20016;-53
2024/04/23 01:16:43;;;;;;;4.45;3.13;;;6.20;59.00;;;1.01;96.27;95290.91;5309206;26;20009;-49
2024/04/23 01:19:34;;;;;;;4.43;3.10;;;6.20;59.10;;;1.00;96.04;95284.03;5345539;26;20005;-53
2024/04/23 01:22:31;;;;;;;4.10;3.17;;;6.20;59.20;;;0.98;96.26;95287.91;5342691;26;20012;-49
2024/04/23 01:25:13;;;;;;;5.82;3.45;;;6.10;59.20;;;0.95;96.54;95286.50;5326297;26;20069;-49
2024/04/23 01:27:44;;;;;;;5.07;3.28;;;6.10;59.20;;;0.91;95.26;95290.56;5312357;26;20012;-49
2024/04/23 01:30:12;;;;;;;3.85;2.72;;;6.10;59.30;;;0.89;95.52;95284.72;5309614;26;20016;-49
2024/04/23 01:32:43;;;;;;;4.72;3.50;;;6.10;59.90;;;0.87;95.92;95287.53;5311173;26;20012;-51
2024/04/23 01:35:12;;;;;;;6.55;3.33;;;6.10;59.30;;;0.87;95.80;95282.31;5348161;26;20416;-49
2024/04/23 01:37:45;;;;;;;5.50;3.50;;;6.10;59.40;;;0.89;96.34;95292.59;5310433;26;20011;-50
2024/04/23 01:40:13;;;;;;;3.80;2.92;;;6.00;59.40;;;0.92;96.30;95289.56;5359391;26;20078;-49
2024/04/23 01:42:40;;;;;;;5.60;3.83;;;6.10;59.40;;;0.89;96.26;95288.16;5334248;26;20082;-54
2024/04/23 01:45:09;;;;;;;5.90;3.47;;;6.00;59.40;;;0.86;96.84;95288.56;5303299;26;20464;-49
2024/04/23 01:47:35;;;;;;;7.35;3.40;;;6.10;59.60;;;0.88;96.85;95286.56;5302837;26;20444;-49
2024/04/23 01:50:02;;;;;;;4.65;3.28;;;6.10;59.60;;;0.90;97.46;95283.69;5355270;26;20012;-54
2024/04/23 01:52:28;;;;;;;4.88;3.33;;;6.10;59.60;;;0.92;97.25;95285.09;5335069;26;20009;-49
2024/04/23 01:54:54;;;;;;;4.72;3.20;;;6.10;59.70;;;0.89;96.96;95282.09;5337063;26;20015;-49
2024/04/23 01:57:20;;;;;;;5.32;3.60;;;6.10;59.70;;;0.92;97.26;95279.06;5337021;26;20016;-50
2024/04/23 01:59:58;;;;;;;4.85;3.60;;;6.10;59.70;;;0.92;97.57;95282.47;5324306;21;20028;-50
2024/04/23 02:02:25;;;;;;;5.00;3.28;;;6.10;59.70;;;0.94;97.44;95279.66;5287933;27;20019;-56
2024/04/23 02:04:52;;;;;;;7.88;3.63;;;6.10;59.70;;;0.98;97.74;95283.47;5292438;26;20020;-56
2024/04/23 02:07:18;;;;;;;5.18;3.70;;;6.10;59.80;;;1.02;97.51;95276.78;5297532;26;20000;-56
2024/04/23 02:09:47;;;;;;;5.47;3.55;;;6.10;59.80;;;1.05;96.96;95275.53;5321189;26;20009;-55
2024/04/23 02:12:14;;;;;;;6.78;3.67;;;6.10;59.80;;;1.06;97.54;95270.06;5273343;27;20019;-55
2024/04/23 02:14:42;;;;;;;6.32;3.75;;;6.20;59.90;;;1.06;97.67;95275.31;5267232;26;20016;-55
2024/04/23 02:17:08;;;;;;;4.93;3.50;;;6.20;59.90;;;1.07;97.85;95274.31;5300556;27;20009;-55
2024/04/23 02:19:34;;;;;;;5.35;3.72;;;6.20;59.90;;;1.05;98.08;95270.31;5245092;27;20033;-54
2024/04/23 02:22:00;;;;;;;6.15;3.55;;;6.20;60.00;;;1.09;98.50;95279.34;5301087;26;20479;-54
2024/04/23 02:24:26;;;;;;;5.20;3.92;;;6.20;59.90;;;1.06;98.19;95266.66;5302313;26;20020;-54
2024/04/23 02:26:52;;;;;;;5.75;4.10;;;6.20;60.00;;;1.04;98.93;95266.09;5302081;27;20490;-52
2024/04/23 02:29:17;;;;;;;5.00;3.53;;;6.20;59.90;;;1.06;98.90;95270.06;5301255;27;20009;-55
2024/04/23 02:31:43;;;;;;;5.05;3.78;;;6.20;60.00;;;1.04;99.50;95272.13;5269931;27;20025;-52
2024/04/23 02:34:11;;;;;;;5.95;3.92;;;6.20;60.00;;;0.98;99.81;95259.84;5297098;27;20037;-55
2024/04/23 02:36:37;;;;;;;5.53;3.80;;;6.20;60.10;;;0.99;100.00;95260.66;5273251;27;20009;-55
2024/04/23 02:39:03;;;;;;;6.55;4.70;;;6.20;60.10;;;0.91;100.00;95256.47;5266748;27;20009;-53
2024/04/23 02:41:29;;;;;;;5.10;3.90;;;6.20;60.20;;;0.93;100.00;95257.06;5292567;26;20017;-56
2024/04/23 02:43:55;;;;;;;5.40;3.95;;;6.20;60.60;;;0.91;100.00;95246.78;5301717;27;20078;-53
2024/04/23 02:46:21;;;;;;;6.78;4.55;;;6.10;60.30;;;0.88;100.00;95243.78;5263042;27;20006;-54
2024/04/23 02:48:46;;;;;;;6.97;4.97;;;6.10;60.60;;;0.90;100.00;95245.16;5299218;27;20017;-56
2024/04/23 02:51:12;;;;;;;6.45;4.28;;;6.10;60.70;;;0.87;100.00;95242.97;5302980;27;20024;-55
2024/04/23 02:53:38;;;;;;;8.90;4.20;;;6.00;60.60;;;0.88;100.00;95249.84;5301392;27;20009;-55
2024/04/23 02:56:04;;;;;;;5.82;4.55;;;6.10;60.70;;;0.87;100.00;95242.16;5302430;27;20024;-56
2024/04/23 02:58:30;;;;;;;6.50;4.68;;;6.00;60.80;;;0.81;100.00;95235.13;5299590;27;20020;-56
2024/04/23 03:00:56;;;;;;;6.78;4.68;;;6.00;60.90;;;0.78;100.00;95238.97;5299477;27;20391;-54
2024/04/23 03:03:22;;;;;;;6.57;4.32;;;6.00;61.00;;;0.78;100.00;95235.56;5301403;27;20107;-55
2024/04/23 03:05:48;;;;;;;7.78;4.65;;;5.90;61.00;;;0.75;100.00;95234.16;5299489;27;20017;-53
2024/04/23 03:08:13;;;;;;;6.40;4.38;;;5.90;61.10;;;0.67;100.00;95240.47;5302458;27;20024;-54
2024/04/23 03:10:39;;;;;;;6.05;4.50;;;5.90;61.10;;;0.63;100.00;95234.06;5299580;27;20009;-53
2024/04/23 03:13:05;;;;;;;6.22;4.15;;;5.90;61.10;;;0.65;100.00;95234.63;5300193;27;20649;-56
2024/04/23 03:15:30;;;;;;;8.32;4.25;;;5.90;61.20;;;0.62;100.00;95235.06;5302363;27;20059;-56
2024/04/23 03:17:56;;;;;;;6.35;4.47;;;5.80;61.10;;;0.63;100.00;95239.28;5270130;27;20049;-53
2024/04/23 03:20:22;;;;;;;7.43;4.53;;;5.80;61.20;;;0.64;100.00;95240.91;5272312;27;20025;-56
2024/04/23 03:22:48;;;;;;;6.47;4.07;;;5.90;61.30;;;0.65;100.00;95239.06;5270371;27;20001;-56
2024/04/23 03:25:14;;;;;;;5.55;4.25;;;5.90;61.40;;;0.62;100.00;95236.88;5302530;27;20009;-55
2024/04/23 03:27:40;;;;;;;6.22;4.35;;;5.90;61.40;;;0.61;100.00;95233.44;5300862;27;20004;-52
2024/04/23 03:30:06;;;;;;;6.60;4.03;;;5.80;61.40;;;0.65;100.00;95234.63;5301168;27;20005;-56
2024/04/23 03:32:32;;;;;;;8.00;4.90;;;5.80;61.40;;;0.66;100.00;95235.47;5302058;27;20017;-52
2024/04/23 03:34:58;;;;;;;7.10;4.45;;;5.90;61.50;;;0.62;100.00;95235.06;5300862;27;20013;-54
2024/04/23 03:37:24;;;;;;;7.32;4.50;;;5.80;61.50;;;0.63;100.00;95233.25;5302053;27;20550;-53
2024/04/23 03:39:50;;;;;;;6.25;4.63;;;5.80;61.50;;;0.63;100.00;95226.19;5299297;26;20027;-56
2024/04/23 03:42:16;;;;;;;7.28;4.95;;;5.80;61.60;;;0.65;100.00;95226.75;5296982;27;20024;-52
2024/04/23 03:44:41;;;;;;;7.20;4.95;;;5.80;61.60;;;0.64;100.00;95224.38;5298027;27;20479;-56
2024/04/23 03:47:07;;;;;;;6.82;4.65;;;5.80;61.70;;;0.64;100.00;95229.59;5300084;27;20086;-56
2024/04/23 03:49:33;;;;;;;7.80;5.45;;;5.80;61.80;;;0.65;100.00;95225.97;5295461;27;20001;-56
2024/04/23 03:52:10;;;;;;;8.07;4.97;;;5.90;61.90;;;0.64;100.00;95227.78;5300335;27;20008;-56
2024/04/23 03:54:37;;;;;;;7.35;4.75;;;5.90;62.00;;;0.67;100.00;95221.31;5300328;26;20094;-54
2024/04/23 03:57:03;;;;;;;7.63;5.07;;;5.90;62.00;;;0.66;100.00;95220.53;5307430;26;20486;-52
2024/04/23 03:59:28;;;;;;;6.75;4.90;;;5.90;61.90;;;0.71;100.00;95219.06;5311681;26;20036;-55
2024/04/23 04:06:03;;;;;;;6.82;5.25;;;5.90;62.00;;;0.70;100.00;95210.41;5304049;26;20001;-50
2024/04/23 04:07:24;;;;;;;5.57;4.50;;;5.80;62.00;;;0.70;100.00;95226.16;5299148;26;20048;-51
2024/04/23 04:09:50;;;;;;;9.82;5.22;;;5.80;62.00;;;0.70;100.00;95223.53;5304295;26;20017;-53
2024/04/23 04:12:16;;;;;;;7.03;4.90;;;5.80;62.00;;;0.65;100.00;95218.09;5304332;26;20009;-49
2024/04/23 04:14:41;;;;;;;6.70;5.10;;;5.80;62.10;;;0.66;100.00;95217.91;5302299;26;20020;-51
2024/04/23 04:17:07;;;;;;;9.43;5.68;;;5.90;62.20;;;0.66;100.00;95220.53;5319245;26;20013;-54
2024/04/23 04:19:33;;;;;;;8.93;5.50;;;5.80;62.10;;;0.59;100.00;95227.59;5300837;26;20021;-56
2024/04/23 04:21:59;;;;;;;7.10;5.40;;;5.80;62.20;;;0.61;100.00;95224.78;5315101;26;20017;-56
2024/04/23 04:24:25;;;;;;;7.50;5.47;;;5.80;62.30;;;0.61;100.00;95228.22;5302184;26;20010;-53
2024/04/23 04:26:50;;;;;;;7.88;5.53;;;5.80;62.30;;;0.64;100.00;95221.75;5311610;26;20008;-56
2024/04/23 04:29:16;;;;;;;8.38;5.75;;;5.80;62.30;;;0.65;100.00;95224.16;5296672;26;20005;-54
2024/04/23 04:31:42;;;;;;;8.50;6.35;;;5.80;62.40;;;0.62;100.00;95234.25;5314417;26;20455;-53
2024/04/23 04:34:08;;;;;;;7.72;5.50;;;5.80;62.40;;;0.65;100.00;95228.59;5290604;26;20028;-52
2024/04/23 04:36:33;;;;;;;7.05;5.22;;;5.80;62.40;;;0.67;100.00;95223.94;5315734;26;20018;-55
2024/04/23 04:38:59;;;;;;;6.93;5.25;;;5.80;62.40;;;0.66;100.00;95220.53;5292644;26;20024;-51
2024/04/23 04:41:25;;;;;;;7.35;5.30;;;5.80;62.40;;;0.66;100.00;95230.22;5301998;26;20037;-52
2024/04/23 04:43:51;;;;;;;7.22;5.07;;;5.80;62.50;;;0.62;100.00;95221.94;5299418;26;20006;-53
2024/04/23 04:46:17;;;;;;;9.35;5.55;;;5.80;62.60;;;0.67;100.00;95219.50;5298455;26;20017;-53
2024/04/23 04:48:42;;;;;;;8.40;5.70;;;5.80;62.60;;;0.68;100.00;95222.91;5301378;26;20133;-54
2024/04/23 04:51:08;;;;;;;8.45;5.20;;;5.90;62.70;;;0.68;100.00;95218.47;5307507;26;20594;-52
2024/04/23 04:53:34;;;;;;;8.63;5.53;;;5.90;62.70;;;0.71;100.00;95213.84;5297475;26;20016;-51
2024/04/23 04:56:00;;;;;;;7.10;5.13;;;5.90;62.60;;;0.71;100.00;95214.63;5311178;26;20017;-52
2024/04/23 04:58:26;;;;;;;6.88;5.45;;;5.90;62.70;;;0.72;100.00;95215.44;5294304;26;20489;-54
2024/04/23 05:00:52;;;;;;;8.80;6.10;;;5.90;62.70;;;0.71;100.00;95212.00;5310379;26;20024;-51
2024/04/23 05:03:17;;;;;;;7.90;5.40;;;5.90;62.70;;;0.74;100.00;95214.22;5301817;26;20009;-49
2024/04/23 05:05:43;;;;;;;8.18;5.20;;;6.00;62.70;;;0.77;100.00;95220.84;5299893;26;20005;-53
2024/04/23 05:08:09;;;;;;;7.93;5.32;;;6.00;62.70;;;0.77;100.00;95219.03;5298837;26;20533;-51
2024/04/23 05:10:35;;;;;;;8.75;5.93;;;6.00;62.70;;;0.79;100.00;95219.63;5305550;26;20024;-50
2024/04/23 05:13:01;;;;;;;8.73;5.88;;;6.10;62.70;;;0.79;100.00;95216.22;5269318;27;20013;-54
2024/04/23 05:15:27;;;;;;;8.57;5.90;;;6.10;62.80;;;0.76;100.00;95224.50;5299139;26;20020;-56
2024/04/23 05:17:53;;;;;;;11.52;6.22;;;6.00;62.70;;;0.73;100.00;95222.31;5289099;26;20372;-54
2024/04/23 05:20:19;;;;;;;7.38;6.05;;;6.10;62.80;;;0.75;100.00;95226.28;5299223;26;20078;-50
2024/04/23 05:22:45;;;;;;;7.75;6.15;;;6.10;62.80;;;0.75;100.00;95223.69;5297953;26;20010;-51
2024/04/23 05:25:10;;;;;;;10.23;6.70;;;6.00;62.80;;;0.76;100.00;95221.88;5289485;26;20009;-51
2024/04/23 05:27:36;;;;;;;9.18;6.45;;;6.10;62.90;;;0.79;100.00;95222.25;5300635;26;20020;-51
2024/04/23 05:30:03;;;;;;;12.57;6.97;;;6.10;62.90;;;0.79;100.00;95217.00;5308572;26;20012;-52
2024/04/23 05:32:47;;;;;;;9.25;5.85;;;6.10;62.90;;;0.76;100.00;95219.25;5275519;27;20020;-50
2024/04/23 05:35:14;;;;;;;8.70;6.28;;;6.10;62.90;;;0.78;100.00;95215.38;5281127;27;20102;-53
2024/04/23 05:37:40;;;;;;;9.48;6.45;;;6.20;63.00;;;0.76;100.00;95227.13;5294587;27;20017;-53
2024/04/23 05:40:07;;;;;;;10.40;6.60;;;6.20;62.90;;;0.70;100.00;95223.53;5301314;26;20356;-51
2024/04/23 05:42:34;;;;;;;9.48;6.55;;;6.20;63.00;;;0.67;100.00;95227.38;5303332;27;20005;-52
2024/04/23 05:45:00;;;;;;;10.32;7.05;;;6.10;62.90;;;0.65;100.00;95221.53;5303585;26;20087;-52
2024/04/23 05:47:26;;;;;;;12.07;7.28;;;6.10;63.00;;;0.67;100.00;95221.31;5301947;27;20017;-53
2024/04/23 05:51:07;;;;;;;11.52;7.60;;;6.10;63.10;;;0.74;100.00;95221.28;5302923;27;20476;-56
2024/04/23 05:54:48;;;;;;;15.23;7.47;;;6.20;63.20;;;0.62;100.00;95229.81;5298322;26;20013;-52
2024/04/23 05:57:13;;;;;;;13.93;7.82;;;6.30;63.30;;;0.72;100.00;95220.69;5299818;26;20056;-56
2024/04/23 05:59:39;;;;;;;12.00;8.25;;;6.30;63.30;;;0.76;100.00;95221.88;5304064;26;20059;-55
2024/04/23 06:02:05;;;;;;;10.85;7.97;;;6.30;63.30;;;0.79;100.00;95227.50;5305815;26;20020;-56
2024/04/23 06:04:31;;;;;;;13.52;8.40;;;6.40;63.30;;;0.79;100.00;95229.31;5302812;26;20375;-56
2024/04/23 06:06:56;;;;;;;15.07;9.02;;;6.40;63.30;;;0.74;100.00;95229.94;5288864;26;20012;-53
2024/04/23 06:09:24;;;;;;;12.95;9.00;;;6.50;63.40;;;0.76;100.00;95227.94;5303638;26;20478;-52
2024/04/23 06:11:49;;;;;;;13.48;8.45;;;6.50;63.40;;;0.75;100.00;95231.53;5283512;26;20014;-54
2024/04/23 06:14:15;;;;;;;15.30;9.10;;;6.50;63.30;;;0.78;100.00;95233.75;5314979;26;20090;-53
2024/04/23 06:16:41;;;;;;;14.27;8.57;;;6.50;63.30;;;0.79;100.00;95235.38;5261588;27;20484;-54
2024/04/23 06:19:07;;;;;;;13.35;9.55;;;6.60;63.30;;;0.86;100.00;95240.56;5311106;26;20009;-54
2024/04/23 06:21:33;;;;;;;13.45;8.60;;;6.60;63.30;;;0.89;100.00;95238.31;5290669;26;20006;-54
2024/04/23 06:23:58;;;;;;;11.45;8.57;;;6.70;63.30;;;0.93;100.00;95231.63;5301614;26;20049;-54
2024/04/23 06:26:25;;;;;;;12.85;8.63;;;6.80;63.20;;;1.00;100.00;95236.81;5302929;27;20009;-51
2024/04/23 06:28:51;;;;;;;13.57;8.80;;;7.00;63.20;;;1.12;100.00;95243.00;5299784;27;20450;-51
2024/04/23 06:31:17;;;;;;;11.13;7.80;;;7.10;63.00;;;1.20;100.00;95233.25;5298725;27;20095;-52
2024/04/23 06:33:43;;;;;;;11.82;8.93;;;7.30;62.90;;;1.27;100.00;95234.81;5302520;26;20027;-52
2024/04/23 06:36:08;;;;;;;12.02;9.13;;;7.40;62.70;;;1.38;100.00;95238.56;5294930;27;20009;-54
2024/04/23 06:38:34;;;;;;;11.30;8.63;;;7.50;62.50;;;1.48;100.00;95238.06;5298891;26;20460;-53
2024/04/23 06:41:00;;;;;;;10.38;7.93;;;7.60;62.40;;;1.57;100.00;95239.41;5291579;26;20490;-54
2024/04/23 06:43:26;;;;;;;12.27;8.73;;;7.70;62.30;;;1.63;100.00;95241.16;5306828;26;20008;-55
2024/04/23 06:45:53;;;;;;;13.65;8.82;;;7.80;62.20;;;1.69;100.00;95242.09;5292706;26;20473;-53
2024/04/23 06:48:19;;;;;;;12.10;8.98;;;7.80;62.10;;;1.71;100.00;95240.88;5276392;26;20789;-51
2024/04/23 06:50:45;;;;;;;13.52;9.07;;;7.90;62.00;;;1.82;100.00;95242.78;5308312;26;20021;-51
2024/04/23 06:53:10;;;;;;;10.45;8.15;;;7.90;62.00;;;1.82;100.00;95245.41;5311350;26;20029;-54
2024/04/23 06:55:37;;;;;;;12.43;8.85;;;8.00;61.90;;;1.82;100.00;95240.16;5313976;26;20005;-55
2024/04/23 06:58:03;;;;;;;11.25;8.80;;;8.00;61.80;;;1.80;100.00;95236.94;5301679;26;20009;-54
2024/04/23 07:00:28;;;;;;;12.90;9.75;;;8.00;61.80;;;1.88;100.00;95235.88;5310090;26;20096;-50
2024/04/23 07:02:54;;;;;;;11.45;8.75;;;8.00;61.60;;;1.93;100.00;95237.84;5279211;26;20005;-56
2024/04/23 07:05:20;;;;;;;13.27;8.88;;;8.00;61.60;;;1.87;100.00;95238.69;5304234;26;20020;-54
2024/04/23 07:07:47;;;;;;;12.57;9.48;;;8.00;61.60;;;1.72;100.00;95234.59;5307909;26;20027;-51
2024/04/23 07:10:13;;;;;;;12.07;8.68;;;7.90;61.50;;;1.64;100.00;95236.72;5317584;26;20850;-54
2024/04/23 07:12:39;;;;;;;11.50;8.95;;;7.90;61.40;;;1.69;100.00;95236.84;5311690;26;20008;-56
2024/04/23 07:15:06;;;;;;;12.88;9.63;;;7.90;61.30;;;1.75;100.00;95236.78;5312221;26;20103;-49
2024/04/23 07:17:32;;;;;;;13.70;9.82;;;7.90;61.40;;;1.81;100.00;95235.13;5308333;26;20024;-54
2024/04/23 07:19:57;;;;;;;12.75;9.45;;;7.90;61.40;;;1.81;100.00;95237.75;5314824;26;20023;-56
2024/04/23 07:22:23;;;;;;;12.85;9.23;;;8.00;61.50;;;1.88;100.00;95237.66;5304626;26;20442;-56
2024/04/23 07:24:49;;;;;;;13.45;9.68;;;8.10;61.50;;;1.91;100.00;95245.91;5312042;26;20561;-54
2024/04/23 07:27:15;;;;;;;11.43;8.98;;;8.10;61.40;;;1.84;100.00;95239.94;5318523;26;20012;-52
2024/04/23 07:29:42;;;;;;;11.13;8.73;;;8.10;61.20;;;1.85;100.00;95245.00;5298340;26;20016;-53
2024/04/23 07:32:10;;;;;;;13.70;9.40;;;8.10;61.10;;;1.87;100.00;95236.88;5293290;26;20017;-54
2024/04/23 07:34:36;;;;;;;12.38;8.80;;;8.10;61.10;;;1.93;100.00;95245.72;5299756;27;20016;-54
2024/04/23 07:37:02;;;;;;;15.75;9.32;;;8.20;61.20;;;1.96;100.00;95234.75;5301103;26;20002;-54
2024/04/23 07:39:28;;;;;;;13.18;9.15;;;8.10;61.00;;;1.97;100.00;95236.38;5266449;27;20534;-52
2024/04/23 07:41:54;;;;;;;11.43;8.88;;;8.20;61.10;;;1.93;100.00;95243.88;5290065;26;20060;-51
2024/04/23 07:44:19;;;;;;;11.55;8.50;;;8.10;60.90;;;1.94;100.00;95234.16;5301807;27;20330;-54
2024/04/23 07:46:45;;;;;;;12.93;9.18;;;8.10;60.80;;;1.92;100.00;95238.88;5300724;26;20017;-53
2024/04/23 07:49:11;;;;;;;13.30;9.68;;;8.20;60.80;;;2.01;100.00;95245.44;5290073;26;20041;-53
2024/04/23 07:51:37;;;;;;;13.65;9.20;;;8.20;60.70;;;2.12;100.00;95242.06;5308027;26;20009;-53
2024/04/23 07:54:03;;;;;;;11.18;8.55;;;8.40;60.70;;;2.21;100.00;95242.56;5294544;26;20005;-53
2024/04/23 07:56:29;;;;;;;11.90;8.50;;;8.50;60.60;;;2.30;100.00;95241.25;5306955;26;20016;-53
2024/04/23 07:58:54;;;;;;;12.40;8.88;;;8.70;60.40;;;2.43;100.00;95242.91;5299379;26;20009;-52
2024/04/23 08:01:20;;;;;;;13.27;9.00;;;8.90;60.10;;;2.44;100.00;95240.03;5305850;26;20020;-51
2024/04/23 08:03:46;;;;;;;13.70;9.00;;;9.10;60.00;;;2.54;100.00;95242.97;5292372;26;20010;-53
2024/04/23 08:06:12;;;;;;;10.73;8.85;;;9.20;59.80;;;2.53;100.00;95249.25;5291932;26;20001;-51
2024/04/23 08:08:37;;;;;;;12.15;9.25;;;9.30;59.70;;;2.64;100.00;95242.44;5298336;26;20044;-55
2024/04/23 08:11:04;;;;;;;11.25;8.52;;;9.30;59.50;;;2.57;100.00;95241.72;5297866;26;20001;-53
2024/04/23 08:13:30;;;;;;;10.43;8.38;;;9.30;59.40;;;2.64;100.00;95246.91;5269316;27;20005;-55
2024/04/23 08:16:00;;;;;;;11.68;9.20;;;9.30;59.30;;;2.59;100.00;95242.28;5290087;26;20020;-52
2024/04/23 08:18:26;;;;;;;10.43;8.10;;;9.40;59.30;;;2.67;100.00;95241.19;5299173;26;20009;-55
2024/04/23 08:20:51;;;;;;;10.43;8.43;;;9.30;59.20;;;2.76;100.00;95245.91;5306515;26;20478;-55
2024/04/23 08:23:19;;;;;;;9.82;8.35;;;9.30;59.10;;;2.98;100.00;95242.78;5283234;26;20001;-55
2024/04/23 08:25:46;;;;;;;11.50;8.23;;;9.40;59.20;;;3.07;100.00;95251.97;5301222;26;20001;-52
2024/04/23 08:28:12;;;;;;;9.90;8.00;;;9.60;59.20;;;3.00;100.00;95249.41;5291968;26;20012;-52
2024/04/23 08:30:38;;;;;;;9.23;7.68;;;9.70;59.10;;;2.71;99.27;95256.28;5300545;26;20478;-53
2024/04/23 08:33:04;;;;;;;9.82;7.25;;;9.80;58.70;;;2.69;99.22;95249.66;5271092;27;20013;-54
2024/04/23 08:35:30;;;;;;;10.38;8.23;;;9.90;58.40;;;2.80;99.63;95251.53;5301042;26;20002;-52
2024/04/23 08:37:57;;;;;;;9.30;7.78;;;9.80;58.10;;;2.80;97.23;95243.63;5296875;27;20016;-54
2024/04/23 08:40:26;;;;;;;9.55;7.90;;;9.80;58.00;;;2.99;99.21;95247.00;5287774;26;20020;-55
2024/04/23 08:42:55;;;;;;;11.07;7.90;;;9.90;58.00;;;2.94;95.59;95241.59;5298567;26;20001;-54
2024/04/23 08:45:27;;;;;;;9.38;7.53;;;10.00;57.80;;;3.12;97.13;95241.53;5266713;27;20005;-52
2024/04/23 08:47:54;;;;;;;14.48;8.35;;;10.00;57.70;;;3.02;95.43;95241.28;5264366;26;20531;-54
2024/04/23 08:50:22;;;;;;;9.30;7.55;;;10.10;57.60;;;3.00;95.71;95248.59;5293918;26;20389;-56
2024/04/23 08:52:49;;;;;;;9.07;7.65;;;10.10;57.30;;;3.09;95.86;95254.34;5303548;26;20344;-51
2024/04/23 08:55:15;;;;;;;10.80;8.02;;;10.10;57.00;;;3.18;96.66;95248.53;5267444;27;20005;-53
2024/04/23 08:57:41;;;;;;;10.20;7.78;;;10.20;57.00;;;3.20;95.93;95241.22;5274775;26;20341;-54
2024/04/23 09:00:09;;;;;;;10.32;7.88;;;10.20;56.90;;;3.26;96.32;95236.91;5238892;27;20038;-54
2024/04/23 09:02:39;;;;;;;9.38;7.55;;;10.40;56.60;;;3.44;94.12;95242.03;5306180;26;20017;-56
2024/04/23 09:05:07;;;;;;;9.98;7.57;;;10.60;56.40;;;3.52;91.86;95246.19;5290075;27;20013;-57
2024/04/23 09:07:35;;;;;;;11.32;7.47;;;11.00;56.10;;;3.62;92.51;95243.78;5300678;26;20015;-57
2024/04/23 09:10:03;;;;;;;9.05;7.10;;;11.30;55.60;;;3.96;93.58;95244.00;5264353;27;20002;-55
2024/04/23 09:12:30;;;;;;;7.68;6.88;;;11.60;55.50;;;4.09;88.85;95248.22;5298515;27;20492;-57
2024/04/23 09:14:57;;;;;;;7.93;6.93;;;11.80;55.10;;;4.16;88.21;95236.50;5271886;27;20402;-56
2024/04/23 09:17:23;;;;;;;8.75;7.30;;;11.90;54.50;;;4.18;89.77;95238.91;5302831;27;20016;-57
2024/04/23 09:19:50;;;;;;;8.75;7.15;;;12.00;54.20;;;4.47;87.55;95242.41;5293751;26;20263;-52
2024/04/23 09:22:17;;;;;;;8.65;7.47;;;12.30;54.00;;;4.55;86.69;95242.03;5294732;26;20002;-51
2024/04/23 09:24:43;;;;;;;8.85;6.93;;;12.50;53.60;;;4.47;85.10;95247.66;5301735;26;20088;-55
2024/04/23 09:27:09;;;;;;;9.25;7.53;;;12.60;53.10;;;4.25;88.93;95244.06;5308010;26;20041;-54
2024/04/23 09:29:35;;;;;;;8.27;7.40;;;12.70;52.70;;;4.73;87.16;95254.25;5264233;27;20549;-52
2024/04/23 09:32:03;;;;;;;8.18;7.07;;;12.90;52.50;;;4.80;82.50;95244.34;5303219;26;20016;-57
2024/04/23 09:34:30;;;;;;;8.32;6.78;;;13.20;52.20;;;4.84;84.88;95244.69;5276732;27;20352;-54
2024/04/23 09:36:56;;;;;;;8.20;6.97;;;13.40;52.00;;;5.18;82.02;95236.81;5304696;26;20530;-55
2024/04/23 09:39:22;;;;;;;7.25;6.50;;;13.70;51.50;;;5.56;81.17;95238.75;5295826;27;20001;-55
2024/04/23 09:41:57;;;;;;;7.43;6.72;;;13.90;51.30;;;5.72;80.17;95242.41;5305139;26;20019;-56
2024/04/23 09:44:25;;;;;;;8.07;6.93;;;13.90;50.90;;;5.57;80.17;95227.94;5305831;26;20389;-53
2024/04/23 09:46:52;;;;;;;8.43;7.03;;;13.80;50.70;;;5.39;79.35;95233.47;5290856;27;20467;-53
2024/04/23 09:49:19;;;;;;;8.48;7.10;;;13.80;50.70;;;5.17;81.42;95225.47;5298890;26;20009;-56
2024/04/23 09:51:46;;;;;;;7.80;7.00;;;13.70;50.50;;;5.41;83.30;95228.75;5310487;26;20002;-52
2024/04/23 09:54:12;;;;;;;7.93;7.13;;;13.90;50.70;;;5.53;81.45;95232.09;5238158;27;20018;-57
2024/04/23 09:56:38;;;;;;;8.90;7.13;;;14.10;50.50;;;5.85;81.38;95220.94;5300891;26;20005;-52
2024/04/23 09:59:09;;;;;;;8.20;7.22;;;14.10;50.40;;;5.48;80.25;95228.56;5304176;26;20429;-53
2024/04/23 10:01:37;;;;;;;7.95;7.15;;;14.00;50.20;;;5.48;78.81;95229.38;5273551;27;20384;-52
2024/04/23 10:04:05;;;;;;;8.80;7.53;;;13.90;50.00;;;5.16;82.14;95231.75;5305353;26;20001;-53
2024/04/23 10:06:43;;;;;;;8.50;7.60;;;13.80;49.80;;;5.44;81.88;95217.69;5289796;26;20021;-52
2024/04/23 10:09:25;;;;;;;7.63;6.65;;;13.80;49.80;;;5.48;78.84;95220.66;5281537;26;20339;-53
2024/04/23 10:12:07;;;;;;;7.07;6.32;;;13.80;49.50;;;5.63;77.38;95217.44;5224735;27;19998;-56
2024/04/23 10:15:12;;;;;;;7.10;6.40;;;13.80;49.50;;;5.65;76.12;95225.94;5273738;27;20021;-54
2024/04/23 10:17:53;;;;;;;8.55;7.65;;;13.80;49.50;;;5.69;79.83;95219.91;5306565;26;20009;-53
2024/04/23 10:20:30;;;;;;;7.95;6.95;;;13.80;49.60;;;5.64;75.91;95229.59;5262788;26;20009;-51
2024/04/23 10:22:57;;;;;;;8.10;7.30;;;13.80;49.40;;;5.56;77.47;95223.69;5290990;26;20000;-53
2024/04/23 10:25:24;;;;;;;7.65;6.93;;;13.60;49.20;;;5.73;78.89;95222.88;5301039;26;20359;-51
2024/04/23 10:27:52;;;;;;;7.20;6.10;;;13.40;49.50;;;5.56;78.17;95217.63;5298997;26;20462;-52
2024/04/23 10:30:21;;;;;;;7.57;6.78;;;13.20;49.70;;;5.57;78.09;95221.84;5259238;26;20012;-55